Terminal Aerodrome Forecast
Issued by NWS St Louis, MO

Home | Current Version | Previous Version | Graphics & Text | Print | Product List | Glossary On
Versions: 1 2 3 4 5 6 7 8 9 10 11 12 13 14 15 16 17 18 19 20 21 22 23
796
FTUS43 KLSX 082058 AAA
TAFSTL
TAF AMD
KSTL 082058Z 0821/0924 29015G23KT P6SM SCT035
     FM090100 30009KT P6SM FEW250
     FM091800 28006KT P6SM BKN150=

USA.gov is the U.S. government's official web portal to all federal, state and local government web resources and services.